Terminal Aerodrome Forecast
Issued by NWS Sioux Falls, SD

Home | Current Version | Previous Version | Text Only | Print | Product List | Glossary On
Versions: 1 2 3 4 5 6 7 8 9 10 11 12 13 14 15 16 17 18 19 20 21 22 23 24 25 26 27 28 29 30 31 32
000
FTUS43 KFSD 201157 CCA
TAFSUX
TAF COR
KSUX 201157Z 2012/2112 03010KT P6SM OVC018
     FM201500 04010KT P6SM OVC025
     FM210300 03004KT P6SM OVC012
     FM210600 VRB03KT 5SM BR OVC008
     FM211000 VRB03KT 4SM BR OVC008=

USA.gov is the U.S. government's official web portal to all federal, state and local government web resources and services.